Time;durP1;ratioP1;P1;durP2;ratioP2;P2;SDS_P1;SDS_P2;PMS_P1;PMS_P2;Temp;Humidity;BMP_temperature;BMP_pressure;BME280_temperature;BME280_humidity;BME280_pressure;Samples;Min_cycle;Max_cycle;Signal;HPM_P1;HPM_P2
2022/07/28 00:02:09;;;;;;;6.65;3.00;;;;;;;29.86;33.38;98407.44;4961065;28;20050;-74
2022/07/28 00:04:34;;;;;;;5.78;2.83;;;;;;;29.80;33.48;98396.88;4993980;28;20084;-74
2022/07/28 00:07:00;;;;;;;6.60;3.10;;;;;;;29.82;33.62;98408.19;4977743;28;20046;-75
2022/07/28 00:09:25;;;;;;;4.32;2.80;;;;;;;29.77;33.28;98403.53;4994990;28;20401;-75
2022/07/28 00:11:51;;;;;;;4.35;2.80;;;;;;;29.75;33.33;98403.78;4993686;28;20042;-75
2022/07/28 00:14:16;;;;;;;4.78;2.88;;;;;;;29.74;33.41;98406.72;4977486;28;20049;-75
2022/07/28 00:16:42;;;;;;;4.95;2.70;;;;;;;29.69;33.63;98396.72;4993501;28;20486;-75
2022/07/28 00:19:08;;;;;;;3.92;2.78;;;;;;;29.69;33.59;98404.78;4977665;28;20080;-75
2022/07/28 00:21:33;;;;;;;5.75;2.67;;;;;;;29.67;33.57;98401.53;4977599;28;20062;-75
2022/07/28 00:23:59;;;;;;;5.82;2.80;;;;;;;29.68;33.49;98413.09;4977244;28;20038;-75
2022/07/28 00:26:24;;;;;;;5.03;2.83;;;;;;;29.68;33.56;98416.63;4994212;28;20101;-75
2022/07/28 00:28:50;;;;;;;5.07;3.03;;;;;;;29.67;33.59;98416.88;4994752;28;20026;-75
2022/07/28 00:31:16;;;;;;;4.22;2.50;;;;;;;29.68;34.05;98421.16;4994738;28;20030;-75
2022/07/28 00:33:41;;;;;;;4.55;2.60;;;;;;;29.65;33.77;98429.72;4993837;28;20058;-75
2022/07/28 00:36:07;;;;;;;3.63;2.60;;;;;;;29.60;33.73;98433.16;4960838;28;20038;-75
2022/07/28 00:38:33;;;;;;;6.32;2.72;;;;;;;29.61;33.64;98434.00;4977571;28;20026;-75
2022/07/28 00:41:11;;;;;;;3.75;2.72;;;;;;;29.59;34.04;98429.66;4977322;28;20080;-75
2022/07/28 00:43:44;;;;;;;3.78;2.63;;;;;;;29.56;33.99;98432.84;4993536;28;20041;-75
2022/07/28 00:46:10;;;;;;;3.28;2.30;;;;;;;29.55;33.92;98433.91;4992987;28;20066;-75
2022/07/28 00:48:39;;;;;;;5.13;2.55;;;;;;;29.51;34.03;98432.78;4993083;28;20030;-74
2022/07/28 00:51:07;;;;;;;4.20;2.58;;;;;;;29.48;34.03;98435.19;4976821;28;20479;-75
2022/07/28 00:53:32;;;;;;;6.35;3.20;;;;;;;29.46;34.07;98438.09;4977018;28;20587;-75
2022/07/28 00:55:58;;;;;;;7.00;2.75;;;;;;;29.39;33.95;98430.19;4994044;28;20088;-75
2022/07/28 00:58:25;;;;;;;4.45;2.45;;;;;;;29.35;34.08;98428.25;4992933;28;20038;-75
2022/07/28 01:00:51;;;;;;;4.38;2.70;;;;;;;29.29;34.31;98427.38;4993947;28;20046;-75
2022/07/28 01:03:17;;;;;;;4.53;2.90;;;;;;;29.27;34.30;98428.66;4976005;28;20051;-75
2022/07/28 01:06:02;;;;;;;4.72;2.80;;;;;;;29.25;34.24;98426.22;4976674;28;20034;-75
2022/07/28 01:08:49;;;;;;;3.85;2.65;;;;;;;29.21;34.36;98417.84;4993432;28;20048;-75
2022/07/28 01:11:17;;;;;;;4.78;2.60;;;;;;;29.20;34.41;98426.16;4994040;28;20520;-75
2022/07/28 01:13:52;;;;;;;4.18;2.60;;;;;;;29.16;34.27;98422.28;4992702;28;20097;-75
2022/07/28 01:16:18;;;;;;;4.07;2.45;;;;;;;29.18;34.37;98430.94;4992577;28;20023;-75
2022/07/28 01:18:48;;;;;;;6.85;2.58;;;;;;;29.19;34.51;98429.91;4993890;28;20037;-75
2022/07/28 01:21:15;;;;;;;3.85;2.47;;;;;;;29.16;34.17;98422.28;4992487;28;20022;-75
2022/07/28 01:23:44;;;;;;;6.63;2.50;;;;;;;29.15;34.07;98423.38;4992452;28;20031;-74
2022/07/28 01:26:24;;;;;;;4.10;2.33;;;;;;;29.15;33.77;98424.19;4994054;28;20389;-75
2022/07/28 01:28:50;;;;;;;8.23;2.40;;;;;;;29.15;33.83;98421.50;4992982;28;20034;-75
2022/07/28 01:31:18;;;;;;;3.75;2.40;;;;;;;29.13;33.60;98412.03;4993847;28;20029;-75
2022/07/28 01:33:46;;;;;;;5.68;2.42;;;;;;;29.16;33.60;98414.22;4976273;28;20038;-74
2022/07/28 01:36:13;;;;;;;;;;;;;;;29.18;33.51;98420.19;4976923;28;20022;-75
2022/07/28 01:38:38;;;;;;;4.15;2.22;;;;;;;29.12;33.40;98413.91;4992244;28;19937;-75
2022/07/28 01:41:06;;;;;;;4.15;2.30;;;;;;;29.12;33.41;98410.44;4975527;28;20501;-75
2022/07/28 01:43:33;;;;;;;4.15;2.60;;;;;;;29.13;33.19;98423.63;4960175;28;20026;-75
2022/07/28 01:45:59;;;;;;;4.53;2.63;;;;;;;29.11;33.21;98416.84;4976103;28;20065;-75
2022/07/28 01:48:24;;;;;;;5.72;2.20;;;;;;;29.11;33.09;98419.53;4975691;28;20485;-75
2022/07/28 01:50:50;;;;;;;5.53;2.30;;;;;;;29.05;33.44;98418.66;4959797;28;20053;-74
2022/07/28 01:53:16;;;;;;;4.53;2.35;;;;;;;29.01;33.58;98421.00;4976491;28;20085;-75
2022/07/28 01:55:42;;;;;;;7.57;2.40;;;;;;;28.98;33.53;98420.69;4959164;28;20042;-74
2022/07/28 01:58:07;;;;;;;10.07;2.30;;;;;;;29.00;33.44;98430.16;4975938;28;20176;-75
2022/07/28 02:00:33;;;;;;;3.83;2.33;;;;;;;28.92;33.57;98424.34;4991085;28;20038;-75
2022/07/28 02:02:58;;;;;;;4.13;2.30;;;;;;;28.90;33.52;98431.84;4975228;28;20505;-75
2022/07/28 02:05:24;;;;;;;2.67;2.10;;;;;;;28.85;33.52;98424.53;4959582;28;20058;-74
2022/07/28 02:07:49;;;;;;;3.97;2.03;;;;;;;28.82;33.61;98436.56;4975804;28;20465;-75
2022/07/28 02:10:15;;;;;;;5.18;2.40;;;;;;;28.82;33.51;98425.00;4959588;28;20459;-75
2022/07/28 02:12:42;;;;;;;3.45;2.22;;;;;;;28.77;33.72;98430.31;4991721;28;20060;-75
2022/07/28 02:15:10;;;;;;;3.88;2.15;;;;;;;28.69;33.64;98432.31;4959635;28;20057;-75
2022/07/28 02:17:35;;;;;;;5.25;2.63;;;;;;;28.63;33.74;98430.59;4975889;28;20441;-75
2022/07/28 02:20:01;;;;;;;3.55;2.50;;;;;;;28.65;33.90;98430.34;4975567;28;20034;-75
2022/07/28 02:22:27;;;;;;;3.95;2.75;;;;;;;28.61;33.84;98434.59;4959387;28;20026;-75
2022/07/28 02:24:53;;;;;;;3.00;2.30;;;;;;;28.61;33.81;98434.59;4959374;28;20049;-75
2022/07/28 02:27:51;;;;;;;3.30;2.30;;;;;;;28.66;33.61;98445.41;4992253;28;20065;-75
2022/07/28 02:30:44;;;;;;;6.47;2.25;;;;;;;28.70;33.62;98443.84;4933086;29;20427;-75
2022/07/28 02:33:15;;;;;;;4.47;2.50;;;;;;;28.68;33.57;98449.47;4916910;29;20122;-75
2022/07/28 02:35:55;;;;;;;7.68;2.40;;;;;;;28.62;33.55;98447.78;4917076;29;20054;-75
2022/07/28 02:38:24;;;;;;;3.63;2.50;;;;;;;28.62;33.24;98447.78;4917547;29;20040;-75
2022/07/28 02:40:52;;;;;;;3.45;2.20;;;;;;;28.62;33.52;98452.31;4932647;29;20039;-75
2022/07/28 02:43:22;;;;;;;2.85;2.13;;;;;;;28.60;33.47;98457.13;4901117;29;20620;-74
2022/07/28 02:45:50;;;;;;;3.72;2.38;;;;;;;28.53;33.43;98443.81;4901394;29;20237;-75
2022/07/28 02:48:17;;;;;;;3.42;2.40;;;;;;;28.53;33.45;98449.19;4932893;29;20040;-75
2022/07/28 02:50:44;;;;;;;7.95;2.42;;;;;;;28.54;33.64;98461.53;4916928;29;20094;-75
2022/07/28 02:53:09;;;;;;;5.10;2.37;;;;;;;28.53;33.36;98462.63;4932018;29;20046;-75
2022/07/28 02:55:35;;;;;;;5.60;2.38;;;;;;;28.52;33.35;98464.47;4901052;29;20031;-75
2022/07/28 02:58:00;;;;;;;4.10;2.60;;;;;;;28.51;33.45;98470.06;4913247;29;20036;-75
2022/07/28 03:00:26;;;;;;;6.60;2.58;;;;;;;28.49;33.20;98467.63;4882327;29;20049;-75
2022/07/28 03:02:53;;;;;;;3.53;2.10;;;;;;;28.45;33.28;98474.56;4881299;29;20060;-75
2022/07/28 03:05:18;;;;;;;11.27;2.70;;;;;;;28.42;33.24;98469.66;4897714;29;20036;-75
2022/07/28 03:07:44;;;;;;;6.78;2.40;;;;;;;28.41;33.49;98470.72;4942093;28;20046;-75
2022/07/28 03:10:18;;;;;;;4.15;2.20;;;;;;;28.42;33.41;98482.28;4972194;28;20031;-75
2022/07/28 03:12:43;;;;;;;4.63;2.42;;;;;;;28.43;33.29;98483.91;4973789;28;20074;-76
2022/07/28 03:15:09;;;;;;;3.58;2.28;;;;;;;28.42;33.37;98484.97;4975202;28;20031;-75
2022/07/28 03:17:35;;;;;;;3.65;2.10;;;;;;;28.45;33.17;98489.81;4978895;28;20110;-76
2022/07/28 03:20:00;;;;;;;5.63;2.53;;;;;;;28.45;33.14;98476.41;4978379;28;20023;-75
2022/07/28 03:22:26;;;;;;;4.10;2.40;;;;;;;28.59;32.90;98488.53;4995762;28;20073;-75
2022/07/28 03:24:52;;;;;;;4.55;2.80;;;;;;;28.72;32.83;98484.75;4995123;28;20088;-75
2022/07/28 03:27:32;;;;;;;4.90;2.50;;;;;;;28.87;32.36;98489.56;4962162;28;20037;-75
2022/07/28 03:30:05;;;;;;;6.53;2.60;;;;;;;29.04;32.32;98486.88;4995829;28;20030;-75
2022/07/28 03:32:32;;;;;;;4.60;2.42;;;;;;;29.16;31.72;98486.78;4978384;28;20042;-76
2022/07/28 03:34:57;;;;;;;8.68;2.97;;;;;;;29.36;31.56;98486.34;4978478;28;20034;-75
2022/07/28 03:37:26;;;;;;;3.67;2.40;;;;;;;29.55;31.09;98487.69;4994551;28;20457;-75
2022/07/28 03:39:52;;;;;;;5.82;2.53;;;;;;;29.75;31.06;98495.25;4978357;28;20022;-75
2022/07/28 03:42:17;;;;;;;5.68;2.47;;;;;;;29.87;30.44;98489.78;4961916;28;20040;-76
2022/07/28 03:44:44;;;;;;;5.03;2.65;;;;;;;30.09;30.30;98491.66;4978123;28;20069;-75
2022/07/28 03:47:10;;;;;;;5.53;2.58;;;;;;;30.34;30.48;98493.03;4977987;28;20040;-77
2022/07/28 03:49:36;;;;;;;4.72;2.45;;;;;;;30.54;30.09;98492.47;4994258;28;20030;-77
2022/07/28 03:52:01;;;;;;;8.48;2.60;;;;;;;30.79;29.71;98494.59;4994642;28;20030;-75
2022/07/28 03:54:27;;;;;;;6.47;2.50;;;;;;;31.08;29.59;98491.66;4993789;28;20042;-76
2022/07/28 03:56:52;;;;;;;5.78;2.47;;;;;;;31.32;29.16;98492.91;4995575;28;20393;-75
2022/07/28 03:59:19;;;;;;;7.03;2.28;;;;;;;31.67;28.67;98499.63;4993639;28;20485;-76
2022/07/28 04:01:45;;;;;;;4.88;3.03;;;;;;;32.01;28.40;98495.78;4995293;28;20130;-75
2022/07/28 04:04:10;;;;;;;9.05;2.90;;;;;;;32.44;27.96;98504.59;4997487;28;20033;-74
2022/07/28 04:06:35;;;;;;;9.23;4.43;;;;;;;32.85;27.75;98507.41;4980990;28;20072;-73
2022/07/28 04:09:01;;;;;;;7.45;4.90;;;;;;;33.29;27.20;98500.66;4996672;28;20037;-71
2022/07/28 04:11:26;;;;;;;13.50;5.90;;;;;;;33.69;26.58;98499.00;4996859;28;20033;-73
2022/07/28 04:13:53;;;;;;;13.18;5.93;;;;;;;34.08;26.26;98501.06;4980922;28;20042;-74
2022/07/28 04:16:18;;;;;;;12.20;7.15;;;;;;;34.42;25.41;98503.09;4996899;28;20037;-73
2022/07/28 04:18:44;;;;;;;17.08;9.23;;;;;;;34.79;25.14;98516.16;4996949;28;20022;-72
2022/07/28 04:21:09;;;;;;;9.90;7.18;;;;;;;35.12;24.83;98516.47;5014413;28;20037;-73
2022/07/28 04:23:35;;;;;;;12.80;7.30;;;;;;;35.50;24.54;98513.97;5013826;28;20087;-72
2022/07/28 04:26:00;;;;;;;9.90;7.20;;;;;;;35.88;24.23;98521.47;5014537;28;20038;-73
2022/07/28 04:28:26;;;;;;;9.93;5.40;;;;;;;36.26;23.83;98523.50;4996791;28;20057;-74
2022/07/28 04:30:51;;;;;;;8.98;7.07;;;;;;;36.62;23.18;98515.66;5013560;28;20042;-74
2022/07/28 04:33:18;;;;;;;10.57;5.82;;;;;;;37.07;23.11;98528.91;4980456;28;20026;-74
2022/07/28 04:35:44;;;;;;;53.67;6.47;;;;;;;37.60;23.62;98530.44;5014267;28;20030;-76
2022/07/28 04:38:12;;;;;;;19.17;3.88;;;;;;;38.22;21.72;98530.09;4997169;28;20029;-91
2022/07/28 04:40:38;;;;;;;6.35;3.10;;;;;;;38.76;21.00;98524.84;4964771;28;20030;-84
2022/07/28 04:43:04;;;;;;;26.90;4.15;;;;;;;39.22;20.48;98531.97;4963215;28;20028;-78
2022/07/28 04:45:30;;;;;;;14.38;3.53;;;;;;;39.68;20.06;98538.16;4963117;28;20524;-81
2022/07/28 04:47:55;;;;;;;11.32;3.42;;;;;;;40.12;19.43;98533.69;4962687;28;20029;-80
2022/07/28 04:50:22;;;;;;;8.90;3.50;;;;;;;40.53;19.07;98542.59;4995470;28;20034;-82
2022/07/28 04:52:48;;;;;;;7.60;3.35;;;;;;;40.98;18.34;98549.75;4977161;28;20034;-76
2022/07/28 04:55:14;;;;;;;7.28;3.10;;;;;;;41.38;18.37;98546.78;5011988;28;20038;-77
2022/07/28 04:57:40;;;;;;;9.00;3.28;;;;;;;41.74;18.03;98553.78;4984755;28;20056;-73
2022/07/28 05:00:11;;;;;;;7.65;3.20;;;;;;;42.10;17.82;98555.25;5011900;28;20033;-73
2022/07/28 05:02:37;;;;;;;10.07;3.08;;;;;;;42.39;17.03;98554.44;4997224;28;20076;-77
2022/07/28 05:05:02;;;;;;;8.13;3.38;;;;;;;42.67;16.60;98553.94;4994624;28;20481;-75
2022/07/28 05:07:28;;;;;;;7.38;2.83;;;;;;;42.93;16.65;98559.19;4994462;28;20071;-75
2022/07/28 05:09:53;;;;;;;8.80;2.92;;;;;;;43.18;16.20;98556.59;4978548;28;20065;-74
2022/07/28 05:12:19;;;;;;;4.50;2.87;;;;;;;43.35;15.84;98559.13;4994552;28;20108;-79
2022/07/28 05:14:44;;;;;;;5.00;3.07;;;;;;;43.64;15.50;98571.13;4962343;28;20096;-77
2022/07/28 05:17:10;;;;;;;4.70;2.70;;;;;;;43.88;15.15;98558.56;4961359;28;20030;-79
2022/07/28 05:19:35;;;;;;;8.80;2.90;;;;;;;44.20;14.85;98570.63;4961330;28;20061;-78
2022/07/28 05:22:01;;;;;;;7.67;3.03;;;;;;;44.39;14.86;98574.72;4977877;28;20037;-75
2022/07/28 05:24:26;;;;;;;7.10;2.33;;;;;;;44.65;14.74;98579.06;4977525;28;20504;-78
2022/07/28 05:26:52;;;;;;;10.50;2.50;;;;;;;44.86;14.00;98579.66;4993952;28;20505;-80
2022/07/28 05:29:17;;;;;;;10.47;2.80;;;;;;;45.03;14.12;98580.56;4976639;28;20428;-76
2022/07/28 05:31:43;;;;;;;8.13;2.63;;;;;;;45.21;14.07;98579.06;4961564;28;20058;-79
2022/07/28 05:34:08;;;;;;;8.63;2.43;;;;;;;45.44;13.81;98584.06;4993606;28;20034;-76
2022/07/28 05:36:34;;;;;;;7.80;2.30;;;;;;;45.56;13.17;98586.72;4960782;28;20045;-77
2022/07/28 05:39:00;;;;;;;10.57;2.83;;;;;;;45.74;12.99;98589.94;4992392;28;20115;-78
2022/07/28 05:41:26;;;;;;;8.10;2.23;;;;;;;45.87;12.75;98596.97;4977541;28;20828;-78
2022/07/28 05:43:51;;;;;;;6.83;2.30;;;;;;;45.93;12.79;98599.44;4977065;28;20032;-80
2022/07/28 05:46:17;;;;;;;7.67;2.03;;;;;;;45.99;12.80;98596.09;4993553;28;20030;-76
2022/07/28 05:48:42;;;;;;;3.87;1.70;;;;;;;46.08;12.90;98600.63;4993147;28;20054;-77
2022/07/28 05:51:07;;;;;;;11.87;1.80;;;;;;;46.17;12.73;98591.00;4994773;28;20405;-77
2022/07/28 05:53:33;;;;;;;9.23;1.70;;;;;;;46.21;12.41;98604.88;4994662;28;20080;-79
2022/07/28 05:55:58;;;;;;;5.60;1.50;;;;;;;46.28;13.08;98609.78;4993903;28;20507;-80
2022/07/28 05:58:24;;;;;;;6.43;1.53;;;;;;;46.34;12.69;98600.06;5011996;28;20026;-76
2022/07/28 06:00:49;;;;;;;5.50;1.30;;;;;;;46.41;13.00;98609.28;4994820;28;20042;-78
2022/07/28 06:03:15;;;;;;;5.07;1.50;;;;;;;46.48;12.79;98605.91;4994440;28;20192;-80
2022/07/28 06:05:40;;;;;;;3.93;1.43;;;;;;;46.57;12.38;98602.94;4978275;28;20057;-79
2022/07/28 06:08:06;;;;;;;2.47;1.30;;;;;;;46.60;12.69;98605.00;4978470;28;20038;-77
2022/07/28 06:13:16;;;;;;;6.22;1.60;;;;;;;46.67;12.71;98609.84;4996457;28;20095;-76
2022/07/28 06:15:41;;;;;;;10.40;1.73;;;;;;;46.69;12.73;98615.84;4985462;28;20124;-79
2022/07/28 06:18:07;;;;;;;4.13;1.40;;;;;;;46.72;12.65;98626.94;4976940;28;20026;-76
2022/07/28 06:20:32;;;;;;;5.97;1.60;;;;;;;46.71;12.68;98619.03;4960506;28;20028;-79
2022/07/28 06:22:58;;;;;;;6.80;1.40;;;;;;;46.71;12.62;98625.34;4976883;28;20136;-79
2022/07/28 06:25:25;;;;;;;4.80;1.20;;;;;;;46.73;12.39;98616.69;4992781;28;20061;-76
2022/07/28 06:27:52;;;;;;;6.97;1.50;;;;;;;46.77;12.72;98617.59;4992837;28;20037;-79
2022/07/28 06:30:17;;;;;;;3.53;1.20;;;;;;;46.77;12.38;98625.88;4992605;28;20037;-76
2022/07/28 06:32:43;;;;;;;8.77;1.30;;;;;;;46.78;12.14;98619.16;4975992;28;20041;-77
2022/07/28 06:35:09;;;;;;;9.57;1.60;;;;;;;46.80;12.36;98624.31;4960883;28;20030;-82
2022/07/28 06:37:35;;;;;;;7.45;1.50;;;;;;;46.84;12.34;98630.72;4960962;28;20033;-81
2022/07/28 06:40:00;;;;;;;4.93;1.43;;;;;;;46.79;11.84;98620.00;4990352;28;20025;-76
2022/07/28 06:42:26;;;;;;;3.60;1.47;;;;;;;46.77;12.06;98617.59;5010289;28;20030;-76
2022/07/28 06:44:51;;;;;;;9.83;1.50;;;;;;;46.80;12.15;98610.53;4975464;28;20582;-79
2022/07/28 06:47:17;;;;;;;3.97;1.40;;;;;;;46.80;12.41;98616.88;4993336;28;20065;-74
2022/07/28 06:49:43;;;;;;;2.33;1.20;;;;;;;46.86;12.42;98609.06;4996889;28;20493;-75
2022/07/28 06:52:08;;;;;;;5.77;1.53;;;;;;;46.84;12.35;98612.19;4978845;28;20100;-76
2022/07/28 06:54:34;;;;;;;5.37;1.60;;;;;;;46.86;11.77;98612.66;4963611;28;20157;-76
2022/07/28 06:56:59;;;;;;;3.67;1.40;;;;;;;46.78;11.74;98608.13;4996414;28;20408;-75
2022/07/28 06:59:25;;;;;;;7.47;1.33;;;;;;;46.63;11.89;98606.25;4977833;28;20109;-77
2022/07/28 07:01:50;;;;;;;5.23;1.30;;;;;;;46.56;12.03;98607.69;4995903;28;20108;-76
2022/07/28 07:04:16;;;;;;;5.30;1.60;;;;;;;46.55;12.54;98608.03;4996275;28;20057;-73
2022/07/28 07:06:42;;;;;;;7.93;1.43;;;;;;;46.50;12.68;98603.56;4996856;28;20046;-77
2022/07/28 07:09:07;;;;;;;10.45;1.60;;;;;;;46.50;12.38;98600.03;4981074;28;20055;-76
2022/07/28 07:11:33;;;;;;;9.83;1.93;;;;;;;46.47;12.19;98598.00;4997367;28;20477;-79
2022/07/28 07:13:59;;;;;;;5.20;1.33;;;;;;;46.44;12.08;98606.97;4965018;28;20493;-77
2022/07/28 07:16:24;;;;;;;10.53;1.70;;;;;;;46.40;11.92;98607.69;4997225;28;20037;-76
2022/07/28 07:18:51;;;;;;;6.63;1.53;;;;;;;46.42;12.06;98615.63;5015298;28;20028;-75
2022/07/28 07:21:18;;;;;;;8.95;1.60;;;;;;;46.41;12.08;98602.97;4996906;28;20037;-76
2022/07/28 07:23:43;;;;;;;10.15;1.55;;;;;;;46.43;12.35;98602.63;4997530;28;20044;-79
2022/07/28 07:26:09;;;;;;;4.00;1.40;;;;;;;46.37;12.28;98602.09;4980746;28;20476;-76
2022/07/28 07:28:34;;;;;;;3.77;1.40;;;;;;;46.29;12.38;98609.44;4981536;28;20041;-78
2022/07/28 07:31:00;;;;;;;5.80;1.47;;;;;;;46.28;12.10;98599.53;4996966;28;20080;-78
2022/07/28 07:33:25;;;;;;;5.23;1.77;;;;;;;46.29;12.15;98608.59;4997227;28;20033;-76
2022/07/28 07:35:51;;;;;;;3.40;1.47;;;;;;;46.19;12.37;98601.69;4996774;28;20034;-74
2022/07/28 07:38:17;;;;;;;2.97;1.50;;;;;;;46.11;12.56;98595.16;4980366;28;20038;-78
2022/07/28 07:40:42;;;;;;;4.83;1.40;;;;;;;46.15;12.36;98598.84;4979232;28;20512;-78
2022/07/28 07:43:08;;;;;;;4.10;1.80;;;;;;;46.05;12.36;98599.34;4995466;28;20080;-79
2022/07/28 07:45:33;;;;;;;5.63;1.50;;;;;;;46.04;12.07;98606.84;4963207;28;20026;-83
2022/07/28 07:48:00;;;;;;;2.40;1.27;;;;;;;45.99;12.67;98600.78;4979360;28;20037;-82
2022/07/28 07:50:25;;;;;;;6.60;1.63;;;;;;;45.99;12.73;98606.31;4981138;28;20034;-80
2022/07/28 07:52:51;;;;;;;5.63;1.60;;;;;;;45.92;12.19;98600.63;4978765;28;20058;-81
2022/07/28 07:55:16;;;;;;;3.10;1.50;;;;;;;45.87;12.39;98599.72;4995382;28;20033;-82
2022/07/28 07:57:43;;;;;;;4.27;1.73;;;;;;;45.62;12.99;98599.06;4962956;28;20088;-82
2022/07/28 08:00:09;;;;;;;5.03;1.58;;;;;;;45.71;12.88;98603.63;4962097;28;20030;-87
2022/07/28 08:02:38;;;;;;;5.65;1.70;;;;;;;45.71;12.94;98598.91;4980516;28;20121;-80
2022/07/28 08:05:04;;;;;;;6.05;1.70;;;;;;;45.68;12.67;98592.13;4982112;28;20030;-87
2022/07/28 08:07:29;;;;;;;4.13;1.67;;;;;;;45.66;13.13;98599.97;5012686;28;20025;-81
2022/07/28 08:09:55;;;;;;;5.27;1.80;;;;;;;45.53;12.59;98601.19;4979675;28;20273;-80
2022/07/28 08:12:20;;;;;;;5.97;1.50;;;;;;;45.35;13.16;98595.19;4995121;28;20069;-82
2022/07/28 08:14:46;;;;;;;5.90;1.80;;;;;;;45.32;13.30;98598.66;4995091;28;20480;-80
2022/07/28 08:17:11;;;;;;;5.23;1.73;;;;;;;45.27;13.52;98593.41;4979017;28;20069;-77
2022/07/28 08:19:37;;;;;;;6.30;1.70;;;;;;;45.24;13.33;98596.88;4994609;28;20026;-79
2022/07/28 08:22:03;;;;;;;5.75;1.90;;;;;;;45.15;13.41;98591.50;5012816;28;20069;-84
2022/07/28 08:24:28;;;;;;;8.87;1.90;;;;;;;45.10;13.33;98598.06;4994660;28;20443;-82
2022/07/28 08:26:54;;;;;;;4.53;2.00;;;;;;;44.94;13.19;98591.69;4994944;28;20026;-80
2022/07/28 08:29:19;;;;;;;6.30;1.90;;;;;;;44.82;13.08;98586.22;4963059;28;20036;-81
2022/07/28 08:31:45;;;;;;;10.30;2.20;;;;;;;44.76;13.25;98599.44;4978534;28;20018;-84
2022/07/28 08:34:10;;;;;;;3.77;1.83;;;;;;;44.72;13.13;98596.56;5013426;28;20841;-88
2022/07/28 08:36:36;;;;;;;4.63;1.67;;;;;;;44.60;13.16;98586.41;4978979;28;20029;-76
2022/07/28 08:39:01;;;;;;;9.33;1.83;;;;;;;44.43;13.72;98594.91;4963060;28;20500;-78
2022/07/28 08:41:47;;;;;;;6.10;1.80;;;;;;;44.24;13.84;98593.53;4994677;28;20087;-78
2022/07/28 08:44:14;;;;;;;11.88;1.83;;;;;;;44.17;14.14;98582.28;4977118;28;20555;-79
2022/07/28 08:46:40;;;;;;;5.43;1.90;;;;;;;44.16;14.43;98591.69;4994416;28;20409;-76
2022/07/28 08:49:08;;;;;;;5.43;1.70;;;;;;;44.15;14.43;98592.03;4978657;28;20048;-78
2022/07/28 08:51:34;;;;;;;3.88;1.90;;;;;;;44.00;14.18;98583.31;4977813;28;20026;-78
2022/07/28 08:54:00;;;;;;;6.60;1.65;;;;;;;43.67;14.07;98586.94;4977972;28;20041;-79
2022/07/28 08:56:26;;;;;;;5.67;1.93;;;;;;;43.54;14.26;98588.88;4977931;28;20053;-76
2022/07/28 08:58:51;;;;;;;5.57;1.90;;;;;;;43.50;14.26;98582.44;4978030;28;20021;-77
2022/07/28 09:01:17;;;;;;;6.53;1.60;;;;;;;43.44;14.30;98588.50;4993255;28;20104;-75
2022/07/28 09:03:42;;;;;;;2.47;1.50;;;;;;;43.31;14.62;98582.13;4994009;28;20046;-80
2022/07/28 09:06:08;;;;;;;4.73;1.90;;;;;;;43.24;14.66;98587.38;4961894;28;20061;-83
2022/07/28 09:08:34;;;;;;;2.60;1.70;;;;;;;43.19;15.04;98580.97;5011337;28;20026;-78
2022/07/28 09:10:59;;;;;;;9.93;1.70;;;;;;;43.14;14.82;98583.94;5011530;28;20499;-79
2022/07/28 09:13:25;;;;;;;7.83;2.00;;;;;;;43.14;14.99;98588.59;4976809;28;20095;-76
2022/07/28 09:15:50;;;;;;;6.67;2.10;;;;;;;42.91;14.74;98588.13;4961948;28;20034;-79
2022/07/28 09:18:16;;;;;;;6.63;1.73;;;;;;;42.84;15.19;98574.94;4977466;28;20068;-80
2022/07/28 09:20:42;;;;;;;3.13;1.83;;;;;;;42.86;15.23;98575.41;4977570;28;20030;-78
2022/07/28 09:23:08;;;;;;;5.87;2.13;;;;;;;42.77;15.26;98577.44;4977650;28;20026;-81
2022/07/28 09:25:33;;;;;;;4.33;2.07;;;;;;;42.72;15.25;98585.88;4977442;28;20477;-80
2022/07/28 09:28:07;;;;;;;3.72;1.90;;;;;;;42.66;15.39;98590.75;4977485;28;20057;-81
2022/07/28 09:30:35;;;;;;;3.65;2.03;;;;;;;42.38;15.63;98582.97;4977735;28;20046;-74
2022/07/28 09:33:14;;;;;;;7.15;2.00;;;;;;;42.31;15.78;98585.47;4977473;28;20049;-77
2022/07/28 09:35:53;;;;;;;7.15;1.92;;;;;;;42.27;15.81;98585.34;4993896;28;20033;-77
2022/07/28 09:38:19;;;;;;;8.90;2.08;;;;;;;42.15;15.98;98587.97;4990968;28;20520;-77
2022/07/28 09:41:01;;;;;;;5.78;2.10;;;;;;;41.88;15.60;98586.47;4977272;28;20021;-76
2022/07/28 09:43:34;;;;;;;4.30;1.92;;;;;;;41.75;16.05;98583.59;4976445;28;20488;-75
2022/07/28 09:46:10;;;;;;;9.55;2.10;;;;;;;41.65;16.17;98583.13;5008586;28;20018;-75
2022/07/28 09:48:58;;;;;;;5.60;2.03;;;;;;;41.59;15.85;98586.06;4963685;28;20021;-75
2022/07/28 09:51:27;;;;;;;4.82;2.08;;;;;;;41.50;16.49;98571.56;4993530;28;20073;-74
2022/07/28 09:54:05;;;;;;;7.15;1.77;;;;;;;41.43;16.23;98575.94;4977059;28;20038;-78
2022/07/28 09:56:30;;;;;;;6.55;2.00;;;;;;;41.37;16.05;98583.50;4995235;28;20160;-76
2022/07/28 09:58:59;;;;;;;5.68;2.30;;;;;;;41.23;16.60;98573.53;4993111;28;20025;-77
2022/07/28 10:01:25;;;;;;;9.00;2.10;;;;;;;41.13;16.46;98579.31;4977366;28;20026;-76
2022/07/28 10:03:54;;;;;;;7.53;2.10;;;;;;;41.01;16.67;98571.78;4976839;28;20054;-75
2022/07/28 10:06:24;;;;;;;4.53;2.00;;;;;;;40.93;16.89;98563.56;4977333;28;20540;-78
2022/07/28 10:08:50;;;;;;;5.60;2.28;;;;;;;40.87;17.00;98561.00;4993364;28;20026;-77
2022/07/28 10:11:17;;;;;;;8.27;2.00;;;;;;;40.77;17.16;98558.56;4992890;28;20029;-79
2022/07/28 10:13:56;;;;;;;5.50;2.20;;;;;;;40.61;17.30;98569.19;4976870;28;20029;-78
2022/07/28 10:16:23;;;;;;;3.80;2.00;;;;;;;40.51;17.50;98558.53;4990647;28;20045;-77
2022/07/28 10:18:49;;;;;;;6.25;2.30;;;;;;;40.50;17.33;98557.75;4959420;28;20129;-78
2022/07/28 10:21:16;;;;;;;4.75;2.08;;;;;;;40.45;17.62;98563.34;5010335;28;20026;-75
2022/07/28 10:23:53;;;;;;;5.15;2.33;;;;;;;40.37;17.17;98555.91;4976726;28;20030;-79
2022/07/28 10:26:31;;;;;;;4.05;2.20;;;;;;;40.22;17.42;98559.13;4977123;28;20053;-77
2022/07/28 10:28:56;;;;;;;6.07;2.60;;;;;;;40.11;17.51;98544.94;4976648;28;20113;-79
2022/07/28 10:31:33;;;;;;;5.63;2.50;;;;;;;40.01;17.77;98550.69;4992537;28;20109;-77
2022/07/28 10:34:00;;;;;;;8.40;2.60;;;;;;;39.83;18.25;98549.78;4993115;28;20026;-84
2022/07/28 10:36:25;;;;;;;8.10;3.00;;;;;;;39.58;18.14;98547.44;4976739;28;20022;-78
2022/07/28 10:38:57;;;;;;;6.25;2.67;;;;;;;39.51;18.48;98540.78;4976411;28;20275;-81
2022/07/28 10:41:22;;;;;;;4.60;2.35;;;;;;;39.48;18.45;98547.66;4974363;28;20112;-74
2022/07/28 10:43:48;;;;;;;4.13;2.75;;;;;;;39.41;18.42;98539.94;4975584;28;20124;-76
2022/07/28 10:46:14;;;;;;;4.85;2.67;;;;;;;39.40;19.09;98541.03;4973839;28;20053;-74
2022/07/28 10:48:40;;;;;;;7.68;2.60;;;;;;;39.23;18.85;98541.75;4992827;28;20029;-83
2022/07/28 10:51:05;;;;;;;4.32;3.00;;;;;;;39.19;18.96;98537.22;4960396;28;20029;-82
2022/07/28 10:53:33;;;;;;;5.68;2.80;;;;;;;39.16;19.25;98537.88;4976161;28;20560;-79
2022/07/28 10:56:04;;;;;;;4.65;2.83;;;;;;;39.10;19.07;98539.09;4992711;28;20033;-78
2022/07/28 10:58:49;;;;;;;7.53;2.90;;;;;;;38.80;19.68;98534.03;4976276;28;20014;-78
2022/07/28 11:01:38;;;;;;;5.40;2.63;;;;;;;38.67;19.67;98532.97;4975221;28;20125;-79
2022/07/28 11:04:07;;;;;;;5.18;2.90;;;;;;;38.52;19.74;98533.28;4929194;29;20035;-81
2022/07/28 11:06:34;;;;;;;3.53;2.78;;;;;;;38.33;19.81;98528.78;4900051;29;20075;-84
2022/07/28 11:09:20;;;;;;;10.13;3.30;;;;;;;38.22;20.15;98526.56;4916114;29;20036;-75
2022/07/28 11:11:45;;;;;;;6.10;2.90;;;;;;;38.22;20.29;98529.31;4914518;29;20042;-74
2022/07/28 11:14:33;;;;;;;6.95;3.20;;;;;;;38.16;20.73;98521.25;4930696;29;20023;-71
2022/07/28 11:16:59;;;;;;;6.10;2.80;;;;;;;38.04;20.76;98517.38;4892082;29;20067;-72
2022/07/28 11:19:24;;;;;;;8.77;3.40;;;;;;;38.04;21.16;98512.75;4930265;29;20062;-72
2022/07/28 11:22:26;;;;;;;7.47;3.13;;;;;;;38.10;21.14;98511.53;4915705;29;20047;-73
2022/07/28 11:27:50;;;;;;;5.60;3.33;;;;;;;38.03;21.20;98513.03;4931313;29;20373;-73
2022/07/28 11:30:21;;;;;;;8.25;3.30;;;;;;;38.01;21.10;98507.91;4915474;29;20039;-73
2022/07/28 11:32:50;;;;;;;11.90;3.10;;;;;;;38.03;21.09;98500.22;4915282;29;20039;-72
2022/07/28 11:35:27;;;;;;;5.13;3.38;;;;;;;37.93;21.03;98493.06;4934006;29;20047;-74
2022/07/28 11:38:02;;;;;;;6.55;3.20;;;;;;;37.79;21.01;98497.72;4903581;29;20071;-73
2022/07/28 11:40:31;;;;;;;10.85;3.30;;;;;;;37.75;21.38;98499.41;4954778;28;20408;-73